createdAt,value
2018-05-18T00:02:25.132Z,13.35
2018-05-18T00:04:53.489Z,13.33
2018-05-18T00:07:21.825Z,13.30
2018-05-18T00:09:50.172Z,13.26
2018-05-18T00:12:18.509Z,13.28
2018-05-18T00:14:46.873Z,13.24
2018-05-18T00:17:15.210Z,13.23
2018-05-18T00:19:43.561Z,13.22
2018-05-18T00:22:11.892Z,13.32
2018-05-18T00:24:40.244Z,13.23
2018-05-18T00:27:08.572Z,13.26
2018-05-18T00:29:36.927Z,13.21
2018-05-18T00:32:05.258Z,13.17
2018-05-18T00:34:33.603Z,13.06
2018-05-18T00:37:01.941Z,13.04
2018-05-18T00:39:30.302Z,13.00
2018-05-18T00:41:58.637Z,13.00
2018-05-18T00:44:26.993Z,12.98
2018-05-18T00:46:55.333Z,12.97
2018-05-18T00:49:23.684Z,12.93
2018-05-18T00:51:52.008Z,12.92
2018-05-18T00:54:20.364Z,12.95
2018-05-18T00:56:48.701Z,12.90
2018-05-18T00:59:17.048Z,12.91
2018-05-18T01:01:45.391Z,12.90
2018-05-18T01:04:13.748Z,12.74
2018-05-18T01:06:42.076Z,12.82
2018-05-18T01:09:10.439Z,12.84
2018-05-18T01:11:38.764Z,12.71
2018-05-18T01:14:07.119Z,12.70
2018-05-18T01:16:35.449Z,12.72
2018-05-18T01:19:03.804Z,12.68
2018-05-18T01:21:32.140Z,12.68
2018-05-18T01:24:00.497Z,12.74
2018-05-18T01:26:28.832Z,12.77
2018-05-18T01:28:57.188Z,12.75
2018-05-18T01:31:25.528Z,12.69
2018-05-18T01:33:53.880Z,12.74
2018-05-18T01:36:22.217Z,12.73
2018-05-18T01:38:50.563Z,12.63
2018-05-18T01:41:18.895Z,12.59
2018-05-18T01:43:47.265Z,12.61
2018-05-18T01:46:15.592Z,12.61
2018-05-18T01:48:43.924Z,12.63
2018-05-18T01:51:12.281Z,12.66
2018-05-18T01:53:40.620Z,12.70
2018-05-18T01:56:08.968Z,12.63
2018-05-18T01:58:37.301Z,12.59
2018-05-18T02:01:05.656Z,12.55
2018-05-18T02:03:33.989Z,12.62
2018-05-18T02:06:02.690Z,12.49
2018-05-18T02:08:31.004Z,12.51
2018-05-18T02:10:59.349Z,12.46
2018-05-18T02:13:27.680Z,12.46
2018-05-18T02:15:56.032Z,12.46
2018-05-18T02:18:24.364Z,12.44
2018-05-18T02:20:52.716Z,12.39
2018-05-18T02:23:21.049Z,12.38
2018-05-18T02:25:49.404Z,12.49
2018-05-18T02:28:17.736Z,12.48
2018-05-18T02:30:46.096Z,12.42
2018-05-18T02:33:14.435Z,12.35
2018-05-18T02:35:42.793Z,12.33
2018-05-18T02:38:11.124Z,12.35
2018-05-18T02:40:39.476Z,12.35
2018-05-18T02:43:07.815Z,12.33
2018-05-18T02:45:36.157Z,12.31
2018-05-18T02:48:04.495Z,12.38
2018-05-18T02:50:32.848Z,12.38
2018-05-18T02:53:01.180Z,12.38
2018-05-18T02:55:29.530Z,12.38
2018-05-18T02:57:57.861Z,12.46
2018-05-18T03:00:26.211Z,12.35
2018-05-18T03:02:54.594Z,12.27
2018-05-18T03:05:22.937Z,12.30
2018-05-18T03:07:51.260Z,12.28
2018-05-18T03:10:19.617Z,12.39
2018-05-18T03:12:47.961Z,12.38
2018-05-18T03:15:16.313Z,12.45
2018-05-18T03:17:44.650Z,12.35
2018-05-18T03:20:13.001Z,12.35
2018-05-18T03:22:41.341Z,12.44
2018-05-18T03:25:09.694Z,12.42
2018-05-18T03:27:38.029Z,12.42
2018-05-18T03:30:06.380Z,12.52
2018-05-18T03:32:34.714Z,12.57
2018-05-18T03:35:03.068Z,12.49
2018-05-18T03:37:31.400Z,12.49
2018-05-18T03:39:59.753Z,12.44
2018-05-18T03:42:28.087Z,12.48
2018-05-18T03:44:56.457Z,12.49
2018-05-18T03:47:24.794Z,12.47
2018-05-18T03:49:53.124Z,12.53
2018-05-18T03:52:21.485Z,12.53
2018-05-18T03:54:49.813Z,12.45
2018-05-18T03:57:18.163Z,12.44
2018-05-18T03:59:46.492Z,12.55
2018-05-18T04:02:26.751Z,12.46
2018-05-18T04:05:06.881Z,12.45
2018-05-18T04:10:37.652Z,12.24
2018-05-18T04:13:05.984Z,12.20
2018-05-18T04:15:34.336Z,12.22
2018-05-18T04:18:02.671Z,12.17
2018-05-18T04:20:31.024Z,12.11
2018-05-18T04:22:59.360Z,12.09
2018-05-18T04:25:27.720Z,12.15
2018-05-18T04:27:56.048Z,12.21
2018-05-18T04:30:24.469Z,12.26
2018-05-18T04:32:52.736Z,12.22
2018-05-18T04:35:21.092Z,12.27
2018-05-18T04:37:49.421Z,12.25
2018-05-18T04:40:17.743Z,12.24
2018-05-18T04:42:46.101Z,12.26
2018-05-18T04:45:14.434Z,12.22
2018-05-18T04:47:42.777Z,12.23
2018-05-18T04:50:11.108Z,12.31
2018-05-18T04:52:39.458Z,12.32
2018-05-18T04:55:07.792Z,12.41
2018-05-18T04:57:36.147Z,12.37
2018-05-18T05:00:04.472Z,12.32
2018-05-18T05:02:32.816Z,12.33
2018-05-18T05:05:01.144Z,12.38
2018-05-18T05:07:29.500Z,12.41
2018-05-18T05:09:57.837Z,12.39
2018-05-18T05:12:26.197Z,12.32
2018-05-18T05:14:54.524Z,12.21
2018-05-18T05:17:22.877Z,12.16
2018-05-18T05:19:51.205Z,12.17
2018-05-18T05:22:19.560Z,12.17
2018-05-18T05:24:47.888Z,12.11
2018-05-18T05:27:16.245Z,12.19
2018-05-18T05:29:45.435Z,12.20
2018-05-18T05:32:13.789Z,12.18
2018-05-18T05:34:42.113Z,12.09
2018-05-18T05:37:10.464Z,12.10
2018-05-18T05:39:38.793Z,12.01
2018-05-18T05:42:07.149Z,12.13
2018-05-18T05:44:35.481Z,12.17
2018-05-18T05:47:03.835Z,12.16
2018-05-18T05:49:32.166Z,12.18
2018-05-18T05:52:00.516Z,12.18
2018-05-18T05:54:28.844Z,12.20
2018-05-18T05:56:57.193Z,12.24
2018-05-18T05:59:25.558Z,12.30
2018-05-18T06:01:53.868Z,12.42
2018-05-18T06:04:23.298Z,12.56
2018-05-18T06:06:51.647Z,12.64
2018-05-18T06:09:19.992Z,12.58
2018-05-18T06:11:48.342Z,12.55
2018-05-18T06:14:16.668Z,12.61
2018-05-18T06:16:45.025Z,12.62
2018-05-18T06:19:13.500Z,12.56
2018-05-18T06:21:41.836Z,12.58
2018-05-18T06:24:10.168Z,12.65
2018-05-18T06:26:38.520Z,12.70
2018-05-18T06:29:06.848Z,12.73
2018-05-18T06:31:35.200Z,12.74
2018-05-18T06:34:03.533Z,12.81
2018-05-18T06:36:31.889Z,12.87
2018-05-18T06:39:00.235Z,12.94
2018-05-18T06:41:28.573Z,12.91
2018-05-18T06:43:56.916Z,12.76
2018-05-18T06:46:25.249Z,12.81
2018-05-18T06:48:54.140Z,12.85
2018-05-18T06:51:22.476Z,12.90
2018-05-18T06:53:50.824Z,12.93
2018-05-18T06:56:19.156Z,12.91
2018-05-18T06:58:47.555Z,12.86
2018-05-18T07:01:15.912Z,12.88
2018-05-18T07:03:44.268Z,12.88
2018-05-18T07:06:12.704Z,12.81
2018-05-18T07:08:41.249Z,12.83
2018-05-18T07:11:09.656Z,12.83
2018-05-18T07:13:38.299Z,12.97
2018-05-18T07:16:06.656Z,13.01
2018-05-18T07:18:35.013Z,12.98
2018-05-18T07:21:03.340Z,13.09
2018-05-18T07:23:31.759Z,13.12
2018-05-18T07:26:00.011Z,13.13
2018-05-18T07:28:28.425Z,13.25
2018-05-18T07:30:56.752Z,13.31
2018-05-18T07:33:25.104Z,13.33
2018-05-18T07:35:53.434Z,13.35
2018-05-18T07:38:21.780Z,13.41
2018-05-18T07:40:50.116Z,13.55
2018-05-18T07:43:18.467Z,13.56
2018-05-18T07:45:46.800Z,13.56
2018-05-18T07:48:15.156Z,13.61
2018-05-18T07:50:43.484Z,13.65
2018-05-18T07:53:11.835Z,13.66
2018-05-18T07:55:40.177Z,13.72
2018-05-18T07:58:08.529Z,13.78
2018-05-18T08:00:36.852Z,13.78
2018-05-18T08:03:05.201Z,13.80
2018-05-18T08:05:33.540Z,13.81
2018-05-18T08:08:02.859Z,13.88
2018-05-18T08:10:31.193Z,13.96
2018-05-18T08:12:59.544Z,14.12
2018-05-18T08:15:27.871Z,14.02
2018-05-18T08:17:56.224Z,13.94
2018-05-18T08:20:24.587Z,14.02
2018-05-18T08:22:52.905Z,14.66
2018-05-18T08:25:21.233Z,14.58
2018-05-18T08:27:49.667Z,14.50
2018-05-18T08:30:17.996Z,14.49
2018-05-18T08:32:46.344Z,14.41
2018-05-18T08:35:14.680Z,14.34
2018-05-18T08:37:43.040Z,14.31
2018-05-18T08:40:11.367Z,14.36
2018-05-18T08:42:39.697Z,14.38
2018-05-18T08:45:08.044Z,14.45
2018-05-18T08:47:37.336Z,14.59
2018-05-18T08:50:05.714Z,14.74
2018-05-18T08:52:33.976Z,14.79
2018-05-18T08:55:02.336Z,14.61
2018-05-18T08:57:30.660Z,14.69
2018-05-18T08:59:59.012Z,14.64
2018-05-18T09:02:27.341Z,14.79
2018-05-18T09:04:55.694Z,14.94
2018-05-18T09:07:24.096Z,15.00
2018-05-18T09:09:52.449Z,15.07
2018-05-18T09:12:20.773Z,14.92
2018-05-18T09:14:49.137Z,14.95
2018-05-18T09:17:17.464Z,14.94
2018-05-18T09:19:45.812Z,15.05
2018-05-18T09:22:14.140Z,15.13
2018-05-18T09:24:42.492Z,15.12
2018-05-18T09:27:11.849Z,15.11
2018-05-18T09:29:40.200Z,15.19
2018-05-18T09:32:08.538Z,15.21
2018-05-18T09:34:36.897Z,15.34
2018-05-18T09:37:05.226Z,15.39
2018-05-18T09:39:33.579Z,15.30
2018-05-18T09:42:01.917Z,15.27
2018-05-18T09:44:30.273Z,15.43
2018-05-18T09:46:58.644Z,15.45
2018-05-18T09:49:27.001Z,15.32
2018-05-18T09:51:55.337Z,15.34
2018-05-18T09:54:23.871Z,15.35
2018-05-18T09:56:52.101Z,15.31
2018-05-18T09:59:20.449Z,15.42
2018-05-18T10:01:48.781Z,15.54
2018-05-18T10:04:17.143Z,15.65
2018-05-18T10:06:46.376Z,15.37
2018-05-18T10:09:14.727Z,15.40
2018-05-18T10:11:43.062Z,15.38
2018-05-18T10:14:11.408Z,15.39
2018-05-18T10:16:39.746Z,15.51
2018-05-18T10:19:08.100Z,15.69
2018-05-18T10:21:36.432Z,15.66
2018-05-18T10:24:04.781Z,15.76
2018-05-18T10:26:33.937Z,15.77
2018-05-18T10:29:02.293Z,15.86
2018-05-18T10:31:30.612Z,15.84
2018-05-18T10:33:58.968Z,15.84
2018-05-18T10:36:27.293Z,15.95
2018-05-18T10:38:55.640Z,16.00
2018-05-18T10:41:23.972Z,15.89
2018-05-18T10:43:52.336Z,16.01
2018-05-18T10:46:21.540Z,16.18
2018-05-18T10:48:49.881Z,16.29
2018-05-18T10:51:18.223Z,16.30
2018-05-18T10:53:46.561Z,16.39
2018-05-18T10:56:14.908Z,16.55
2018-05-18T10:58:43.236Z,16.57
2018-05-18T11:01:11.630Z,16.66
2018-05-18T11:03:39.957Z,16.61
2018-05-18T11:06:08.535Z,16.51
2018-05-18T11:08:36.918Z,16.55
2018-05-18T11:11:05.301Z,16.65
2018-05-18T11:13:33.635Z,16.71
2018-05-18T11:16:01.985Z,16.59
2018-05-18T11:18:30.396Z,16.60
2018-05-18T11:20:58.698Z,16.62
2018-05-18T11:23:27.032Z,16.80
2018-05-18T11:25:55.380Z,16.91
2018-05-18T11:28:23.708Z,16.94
2018-05-18T11:30:52.056Z,17.05
2018-05-18T11:33:20.385Z,17.15
2018-05-18T11:35:48.732Z,16.98
2018-05-18T11:38:17.069Z,17.08
2018-05-18T11:40:45.416Z,17.11
2018-05-18T11:43:13.765Z,17.23
2018-05-18T11:45:42.113Z,17.18
2018-05-18T11:48:10.484Z,17.14
2018-05-18T11:50:38.801Z,16.96
2018-05-18T11:53:07.136Z,17.11
2018-05-18T11:55:35.489Z,17.38
2018-05-18T11:58:03.817Z,17.56
2018-05-18T12:00:32.172Z,17.76
2018-05-18T12:03:00.496Z,17.67
2018-05-18T12:05:28.853Z,17.84
2018-05-18T12:07:57.185Z,17.85
2018-05-18T12:10:25.540Z,17.82
2018-05-18T12:12:54.680Z,17.78
2018-05-18T12:15:23.038Z,17.42
2018-05-18T12:17:52.482Z,17.38
2018-05-18T12:20:20.878Z,17.45
2018-05-18T12:22:49.158Z,17.50
2018-05-18T12:25:17.509Z,17.45
2018-05-18T12:27:45.832Z,17.61
2018-05-18T12:30:14.226Z,17.73
2018-05-18T12:32:42.512Z,17.82
2018-05-18T12:35:10.869Z,17.80
2018-05-18T12:37:39.198Z,17.86
2018-05-18T12:40:07.825Z,17.77
2018-05-18T12:42:36.538Z,17.66
2018-05-18T12:45:05.331Z,17.63
2018-05-18T12:47:33.941Z,17.62
2018-05-18T12:50:02.548Z,17.69
2018-05-18T12:52:31.210Z,17.65
2018-05-18T12:54:59.829Z,17.82
2018-05-18T12:57:28.534Z,18.00
2018-05-18T12:59:57.179Z,18.07
2018-05-18T13:02:25.799Z,18.22
2018-05-18T13:04:55.344Z,18.35
2018-05-18T13:07:23.973Z,18.42
2018-05-18T13:09:52.543Z,18.41
2018-05-18T13:12:21.232Z,18.39
2018-05-18T13:14:49.864Z,18.45
2018-05-18T13:17:18.541Z,18.36
2018-05-18T13:19:47.201Z,18.42
2018-05-18T13:22:15.884Z,18.44
2018-05-18T13:24:45.018Z,18.41
2018-05-18T13:27:14.604Z,18.60
2018-05-18T13:29:43.250Z,18.75
2018-05-18T13:32:11.883Z,18.71
2018-05-18T13:34:40.491Z,18.79
2018-05-18T13:37:08.920Z,18.83
2018-05-18T13:39:37.248Z,18.69
2018-05-18T13:42:05.629Z,18.76
2018-05-18T13:44:33.956Z,18.86
2018-05-18T13:47:02.328Z,18.95
2018-05-18T13:49:30.669Z,19.05
2018-05-18T13:51:59.019Z,19.06
2018-05-18T13:54:27.363Z,19.09
2018-05-18T13:56:55.716Z,19.15
2018-05-18T13:59:24.076Z,19.18
2018-05-18T14:01:52.421Z,19.14
2018-05-18T14:04:20.752Z,19.19
2018-05-18T14:06:49.106Z,19.17
2018-05-18T14:09:17.441Z,19.27
2018-05-18T14:11:45.793Z,19.27
2018-05-18T14:14:14.132Z,19.05
2018-05-18T14:16:42.479Z,19.08
2018-05-18T14:19:10.829Z,18.98
2018-05-18T14:21:39.181Z,19.13
2018-05-18T14:24:07.516Z,19.16
2018-05-18T14:26:36.681Z,19.30
2018-05-18T14:29:05.021Z,19.37
2018-05-18T14:31:34.040Z,19.63
2018-05-18T14:34:02.409Z,20.18
2018-05-18T14:36:30.769Z,20.48
2018-05-18T14:38:59.520Z,20.85
2018-05-18T14:41:27.873Z,20.89
2018-05-18T14:43:56.286Z,20.42
2018-05-18T14:46:24.668Z,19.94
2018-05-18T14:48:53.621Z,19.69
2018-05-18T14:51:22.532Z,19.63
2018-05-18T14:53:50.900Z,19.77
2018-05-18T14:56:19.296Z,19.65
2018-05-18T14:58:47.624Z,19.48
2018-05-18T15:01:16.047Z,19.48
2018-05-18T15:03:44.380Z,19.46
2018-05-18T15:06:12.712Z,19.37
2018-05-18T15:08:41.069Z,19.36
2018-05-18T15:11:09.409Z,19.25
2018-05-18T15:13:37.779Z,19.24
2018-05-18T15:16:06.104Z,19.30
2018-05-18T15:18:34.459Z,19.31
2018-05-18T15:21:02.798Z,19.42
2018-05-18T15:23:31.187Z,19.38
2018-05-18T15:25:59.542Z,19.17
2018-05-18T15:28:27.891Z,19.01
2018-05-18T15:30:56.220Z,18.85
2018-05-18T15:33:24.569Z,19.02
2018-05-18T15:35:53.238Z,19.11
2018-05-18T15:38:21.673Z,19.01
2018-05-18T15:40:50.002Z,18.93
2018-05-18T15:43:18.349Z,18.83
2018-05-18T15:45:46.681Z,18.77
2018-05-18T15:48:15.039Z,18.74
2018-05-18T15:50:43.365Z,18.56
2018-05-18T15:53:11.712Z,18.64
2018-05-18T15:55:40.050Z,18.57
2018-05-18T15:58:08.429Z,18.73
2018-05-18T16:00:36.766Z,18.81
2018-05-18T16:03:05.126Z,18.96
2018-05-18T16:05:33.457Z,19.04
2018-05-18T16:08:01.812Z,19.20
2018-05-18T16:10:30.142Z,19.24
2018-05-18T16:12:58.528Z,19.13
2018-05-18T16:15:26.823Z,19.08
2018-05-18T16:17:55.182Z,19.12
2018-05-18T16:20:23.514Z,19.13
2018-05-18T16:22:51.865Z,19.18
2018-05-18T16:25:20.806Z,19.10
2018-05-18T16:27:49.171Z,19.05
2018-05-18T16:30:17.488Z,19.02
2018-05-18T16:32:45.852Z,19.00
2018-05-18T16:35:14.177Z,18.97
2018-05-18T16:37:42.533Z,18.93
2018-05-18T16:40:10.954Z,18.98
2018-05-18T16:42:39.212Z,18.93
2018-05-18T16:45:07.540Z,18.98
2018-05-18T16:47:35.884Z,19.06
2018-05-18T16:50:04.212Z,19.04
2018-05-18T16:52:32.569Z,18.99
2018-05-18T16:55:00.900Z,19.04
2018-05-18T16:57:29.257Z,18.99
2018-05-18T16:59:57.591Z,19.10
2018-05-18T17:02:25.916Z,19.12
2018-05-18T17:04:54.264Z,19.06
2018-05-18T17:07:22.597Z,19.13
2018-05-18T17:09:50.948Z,19.08
2018-05-18T17:12:19.279Z,19.04
2018-05-18T17:14:47.632Z,19.01
2018-05-18T17:17:15.955Z,18.95
2018-05-18T17:19:44.328Z,18.87
2018-05-18T17:22:12.637Z,18.79
2018-05-18T17:24:40.993Z,18.89
2018-05-18T17:27:09.322Z,18.89
2018-05-18T17:29:37.672Z,18.89
2018-05-18T17:32:05.996Z,18.89
2018-05-18T17:34:34.340Z,18.85
2018-05-18T17:37:02.669Z,18.79
2018-05-18T17:39:31.024Z,18.72
2018-05-18T17:41:59.360Z,18.73
2018-05-18T17:44:27.709Z,18.79
2018-05-18T17:46:56.037Z,18.79
2018-05-18T17:49:24.384Z,18.72
2018-05-18T17:51:52.715Z,18.77
2018-05-18T17:54:21.111Z,18.68
2018-05-18T17:56:49.392Z,18.62
2018-05-18T17:59:17.748Z,18.71
2018-05-18T18:01:46.072Z,18.72
2018-05-18T18:04:14.420Z,18.63
2018-05-18T18:06:42.753Z,18.58
2018-05-18T18:09:11.101Z,18.68
2018-05-18T18:11:39.428Z,18.78
2018-05-18T18:14:07.823Z,18.86
2018-05-18T18:16:36.644Z,18.89
2018-05-18T18:19:04.997Z,18.91
2018-05-18T18:21:33.333Z,18.95
2018-05-18T18:24:01.684Z,18.91
2018-05-18T18:26:30.012Z,18.92
2018-05-18T18:28:58.371Z,18.86
2018-05-18T18:31:26.701Z,18.78
2018-05-18T18:33:55.052Z,18.68
2018-05-18T18:36:23.400Z,18.59
2018-05-18T18:38:51.745Z,18.61
2018-05-18T18:41:20.354Z,18.56
2018-05-18T18:43:48.704Z,18.48
2018-05-18T18:46:17.032Z,18.46
2018-05-18T18:48:45.384Z,18.48
2018-05-18T18:51:13.755Z,18.51
2018-05-18T18:53:42.143Z,18.38
2018-05-18T18:56:10.471Z,18.38
2018-05-18T18:58:39.014Z,18.26
2018-05-18T19:01:07.340Z,18.27
2018-05-18T19:03:35.722Z,18.15
2018-05-18T19:06:04.071Z,17.96
2018-05-18T19:08:32.487Z,18.01
2018-05-18T19:11:00.778Z,17.89
2018-05-18T19:13:29.106Z,17.86
2018-05-18T19:15:57.469Z,17.85
2018-05-18T19:18:25.801Z,17.91
2018-05-18T19:20:54.165Z,17.88
2018-05-18T19:23:22.493Z,17.90
2018-05-18T19:25:50.844Z,17.80
2018-05-18T19:28:19.176Z,17.76
2018-05-18T19:30:47.526Z,17.67
2018-05-18T19:33:15.860Z,17.57
2018-05-18T19:35:44.217Z,17.33
2018-05-18T19:38:13.401Z,17.22
2018-05-18T19:40:41.758Z,17.10
2018-05-18T19:43:10.093Z,16.99
2018-05-18T19:45:38.444Z,17.02
2018-05-18T19:48:06.773Z,16.88
2018-05-18T19:50:35.124Z,16.88
2018-05-18T19:53:03.447Z,16.82
2018-05-18T19:55:31.796Z,16.67
2018-05-18T19:58:00.134Z,16.62
2018-05-18T20:00:28.475Z,16.55
2018-05-18T20:02:56.804Z,16.38
2018-05-18T20:05:25.161Z,16.25
2018-05-18T20:07:53.488Z,16.10
2018-05-18T20:10:21.848Z,16.07
2018-05-18T20:12:51.133Z,15.92
2018-05-18T20:15:19.477Z,15.83
2018-05-18T20:17:47.815Z,15.71
2018-05-18T20:20:16.169Z,15.58
2018-05-18T20:22:44.497Z,15.57
2018-05-18T20:25:12.841Z,15.49
2018-05-18T20:27:41.167Z,15.40
2018-05-18T20:30:09.516Z,15.32
2018-05-18T20:32:37.843Z,15.32
2018-05-18T20:35:06.193Z,15.20
2018-05-18T20:37:34.515Z,15.11
2018-05-18T20:40:02.870Z,15.05
2018-05-18T20:42:31.194Z,14.97
2018-05-18T20:44:59.559Z,14.98
2018-05-18T20:47:27.876Z,15.02
2018-05-18T20:49:56.225Z,14.91
2018-05-18T20:52:24.553Z,14.87
2018-05-18T20:54:52.925Z,14.90
2018-05-18T20:57:21.248Z,14.86
2018-05-18T20:59:49.600Z,14.84
2018-05-18T21:02:17.926Z,14.65
2018-05-18T21:04:46.253Z,14.65
2018-05-18T21:07:14.600Z,14.54
2018-05-18T21:09:42.938Z,14.57
2018-05-18T21:12:11.280Z,14.67
2018-05-18T21:14:40.533Z,14.83
2018-05-18T21:17:08.879Z,14.84
2018-05-18T21:19:37.216Z,14.69
2018-05-18T21:22:05.573Z,14.58
2018-05-18T21:24:33.900Z,14.54
2018-05-18T21:27:02.252Z,14.47
2018-05-18T21:29:30.581Z,14.42
2018-05-18T21:31:58.932Z,14.38
2018-05-18T21:34:27.351Z,14.36
2018-05-18T21:36:55.695Z,14.47
2018-05-18T21:39:24.020Z,14.49
2018-05-18T21:41:52.368Z,14.44
2018-05-18T21:44:20.700Z,14.59
2018-05-18T21:46:49.045Z,14.59
2018-05-18T21:49:17.360Z,14.76
2018-05-18T21:51:45.709Z,14.84
2018-05-18T21:54:14.032Z,14.90
2018-05-18T21:56:42.380Z,15.00
2018-05-18T21:59:10.700Z,15.09
2018-05-18T22:01:39.044Z,15.09
2018-05-18T22:04:07.374Z,15.10
2018-05-18T22:06:35.738Z,15.14
2018-05-18T22:09:06.676Z,15.10
2018-05-18T22:11:35.021Z,15.10
2018-05-18T22:14:03.355Z,15.12
2018-05-18T22:16:31.692Z,15.11
2018-05-18T22:19:00.022Z,15.14
2018-05-18T22:21:28.367Z,15.17
2018-05-18T22:23:56.687Z,15.18
2018-05-18T22:26:25.036Z,15.11
2018-05-18T22:28:53.360Z,15.07
2018-05-18T22:31:21.705Z,14.99
2018-05-18T22:33:50.028Z,14.96
2018-05-18T22:36:18.380Z,15.02
2018-05-18T22:38:46.704Z,15.07
2018-05-18T22:41:15.049Z,15.07
2018-05-18T22:43:43.373Z,14.89
2018-05-18T22:46:11.721Z,14.88
2018-05-18T22:48:40.041Z,14.85
2018-05-18T22:51:08.388Z,14.82
2018-05-18T22:53:36.712Z,14.74
2018-05-18T22:56:05.056Z,14.72
2018-05-18T22:58:33.383Z,14.69
2018-05-18T23:01:01.728Z,14.57
2018-05-18T23:03:30.044Z,14.55
2018-05-18T23:05:58.414Z,14.53
2018-05-18T23:08:26.737Z,14.48
2018-05-18T23:10:55.060Z,14.43
2018-05-18T23:13:23.403Z,14.42
2018-05-18T23:15:51.724Z,14.19
2018-05-18T23:18:20.068Z,14.08
2018-05-18T23:20:48.394Z,14.05
2018-05-18T23:23:16.736Z,14.01
2018-05-18T23:25:45.117Z,13.90
2018-05-18T23:28:13.416Z,13.94
2018-05-18T23:30:41.741Z,13.94
2018-05-18T23:33:10.085Z,13.96
2018-05-18T23:35:38.414Z,13.98
2018-05-18T23:38:06.761Z,14.00
2018-05-18T23:40:35.085Z,14.02
2018-05-18T23:43:03.428Z,14.02
2018-05-18T23:45:31.753Z,13.97
2018-05-18T23:48:00.100Z,13.98
2018-05-18T23:50:28.425Z,13.89
2018-05-18T23:52:56.796Z,13.84
2018-05-18T23:55:25.099Z,13.83
2018-05-18T23:57:53.447Z,13.78
